sensor_id;sensor_type;location;lat;lon;timestamp;temperature;humidity
10344;DHT22;5217;43.960;10.954;2022-12-18T00:00:08;14.70;99.90
10344;DHT22;5217;43.960;10.954;2022-12-18T00:02:36;14.70;99.90
10344;DHT22;5217;43.960;10.954;2022-12-18T00:05:08;14.60;99.90
10344;DHT22;5217;43.960;10.954;2022-12-18T00:07:36;14.70;99.90
10344;DHT22;5217;43.960;10.954;2022-12-18T00:10:06;14.60;99.90
10344;DHT22;5217;43.960;10.954;2022-12-18T00:12:35;14.70;99.90
10344;DHT22;5217;43.960;10.954;2022-12-18T00:15:04;14.70;99.90
10344;DHT22;5217;43.960;10.954;2022-12-18T00:17:33;14.60;99.90
10344;DHT22;5217;43.960;10.954;2022-12-18T00:20:01;14.70;99.90
10344;DHT22;5217;43.960;10.954;2022-12-18T00:22:32;14.60;99.90
10344;DHT22;5217;43.960;10.954;2022-12-18T00:25:00;14.60;99.90
10344;DHT22;5217;43.960;10.954;2022-12-18T00:27:28;14.50;99.90
10344;DHT22;5217;43.960;10.954;2022-12-18T00:29:57;14.50;99.90
10344;DHT22;5217;43.960;10.954;2022-12-18T00:32:25;14.50;99.90
10344;DHT22;5217;43.960;10.954;2022-12-18T00:34:53;14.50;99.90
10344;DHT22;5217;43.960;10.954;2022-12-18T00:37:22;14.50;99.90
10344;DHT22;5217;43.960;10.954;2022-12-18T00:39:51;14.40;99.90
10344;DHT22;5217;43.960;10.954;2022-12-18T00:42:20;14.40;99.90
10344;DHT22;5217;43.960;10.954;2022-12-18T00:45:06;14.40;99.90
10344;DHT22;5217;43.960;10.954;2022-12-18T00:47:38;14.40;99.90
10344;DHT22;5217;43.960;10.954;2022-12-18T00:50:08;14.40;99.90
10344;DHT22;5217;43.960;10.954;2022-12-18T00:52:36;14.40;99.90
10344;DHT22;5217;43.960;10.954;2022-12-18T00:55:07;14.30;99.90
10344;DHT22;5217;43.960;10.954;2022-12-18T00:57:35;14.30;99.90
10344;DHT22;5217;43.960;10.954;2022-12-18T01:00:06;14.30;99.90
10344;DHT22;5217;43.960;10.954;2022-12-18T01:02:34;14.30;99.90
10344;DHT22;5217;43.960;10.954;2022-12-18T01:05:04;14.20;99.90
10344;DHT22;5217;43.960;10.954;2022-12-18T01:07:32;14.30;99.90
10344;DHT22;5217;43.960;10.954;2022-12-18T01:10:00;14.20;99.90
10344;DHT22;5217;43.960;10.954;2022-12-18T01:12:30;14.20;99.90
10344;DHT22;5217;43.960;10.954;2022-12-18T01:14:59;14.20;99.90
10344;DHT22;5217;43.960;10.954;2022-12-18T01:17:27;14.20;99.90
10344;DHT22;5217;43.960;10.954;2022-12-18T01:19:55;14.20;99.90
10344;DHT22;5217;43.960;10.954;2022-12-18T01:22:24;14.20;99.90
10344;DHT22;5217;43.960;10.954;2022-12-18T01:24:52;14.20;99.90
10344;DHT22;5217;43.960;10.954;2022-12-18T01:27:20;14.10;99.90
10344;DHT22;5217;43.960;10.954;2022-12-18T01:29:50;14.20;99.90
10344;DHT22;5217;43.960;10.954;2022-12-18T01:32:19;14.20;99.90
10344;DHT22;5217;43.960;10.954;2022-12-18T01:34:47;14.10;99.90
10344;DHT22;5217;43.960;10.954;2022-12-18T01:37:15;14.20;99.90
10344;DHT22;5217;43.960;10.954;2022-12-18T01:39:44;14.20;99.90
10344;DHT22;5217;43.960;10.954;2022-12-18T01:42:14;14.10;99.90
10344;DHT22;5217;43.960;10.954;2022-12-18T01:45:23;14.20;99.90
10344;DHT22;5217;43.960;10.954;2022-12-18T01:47:54;14.00;99.90
10344;DHT22;5217;43.960;10.954;2022-12-18T01:50:25;14.10;99.90
10344;DHT22;5217;43.960;10.954;2022-12-18T01:52:58;14.10;99.90
10344;DHT22;5217;43.960;10.954;2022-12-18T01:55:29;14.00;99.90
10344;DHT22;5217;43.960;10.954;2022-12-18T01:57:59;14.00;99.90
10344;DHT22;5217;43.960;10.954;2022-12-18T02:00:30;14.00;99.90
10344;DHT22;5217;43.960;10.954;2022-12-18T02:02:58;14.00;99.90
10344;DHT22;5217;43.960;10.954;2022-12-18T02:05:40;14.00;99.90
10344;DHT22;5217;43.960;10.954;2022-12-18T02:08:15;14.00;99.90
10344;DHT22;5217;43.960;10.954;2022-12-18T02:10:51;14.00;99.90
10344;DHT22;5217;43.960;10.954;2022-12-18T02:13:27;14.00;99.90
10344;DHT22;5217;43.960;10.954;2022-12-18T02:16:03;14.00;99.90
10344;DHT22;5217;43.960;10.954;2022-12-18T02:18:36;14.00;99.90
10344;DHT22;5217;43.960;10.954;2022-12-18T02:21:13;14.00;99.90
10344;DHT22;5217;43.960;10.954;2022-12-18T02:23:50;13.90;99.90
10344;DHT22;5217;43.960;10.954;2022-12-18T02:26:29;13.90;99.90
10344;DHT22;5217;43.960;10.954;2022-12-18T02:29:02;13.90;99.90
10344;DHT22;5217;43.960;10.954;2022-12-18T02:31:37;13.90;99.90
10344;DHT22;5217;43.960;10.954;2022-12-18T02:34:09;13.90;99.90
10344;DHT22;5217;43.960;10.954;2022-12-18T02:36:40;13.90;99.90
10344;DHT22;5217;43.960;10.954;2022-12-18T02:39:11;13.90;99.90
10344;DHT22;5217;43.960;10.954;2022-12-18T02:41:41;13.90;99.90
10344;DHT22;5217;43.960;10.954;2022-12-18T02:44:12;13.90;99.90
10344;DHT22;5217;43.960;10.954;2022-12-18T02:46:42;13.80;99.90
10344;DHT22;5217;43.960;10.954;2022-12-18T02:49:22;13.80;99.90
10344;DHT22;5217;43.960;10.954;2022-12-18T02:51:55;13.80;99.90
10344;DHT22;5217;43.960;10.954;2022-12-18T02:54:35;13.80;99.90
10344;DHT22;5217;43.960;10.954;2022-12-18T02:57:14;13.80;99.90
10344;DHT22;5217;43.960;10.954;2022-12-18T02:59:52;13.80;99.90
10344;DHT22;5217;43.960;10.954;2022-12-18T03:02:25;13.70;99.90
10344;DHT22;5217;43.960;10.954;2022-12-18T03:05:01;13.70;99.90
10344;DHT22;5217;43.960;10.954;2022-12-18T03:07:36;13.70;99.90
10344;DHT22;5217;43.960;10.954;2022-12-18T03:10:09;13.60;99.90
10344;DHT22;5217;43.960;10.954;2022-12-18T03:12:44;13.70;99.90
10344;DHT22;5217;43.960;10.954;2022-12-18T03:15:16;13.70;99.90
10344;DHT22;5217;43.960;10.954;2022-12-18T03:17:50;13.60;99.90
10344;DHT22;5217;43.960;10.954;2022-12-18T03:20:22;13.60;99.90
10344;DHT22;5217;43.960;10.954;2022-12-18T03:22:55;13.60;99.90
10344;DHT22;5217;43.960;10.954;2022-12-18T03:25:25;13.60;99.90
10344;DHT22;5217;43.960;10.954;2022-12-18T03:27:58;13.60;99.90
10344;DHT22;5217;43.960;10.954;2022-12-18T03:30:30;13.60;99.90
10344;DHT22;5217;43.960;10.954;2022-12-18T03:33:02;13.60;99.90
10344;DHT22;5217;43.960;10.954;2022-12-18T03:35:36;13.60;99.90
10344;DHT22;5217;43.960;10.954;2022-12-18T03:38:05;13.60;99.90
10344;DHT22;5217;43.960;10.954;2022-12-18T03:40:42;13.50;99.90
10344;DHT22;5217;43.960;10.954;2022-12-18T03:43:19;13.50;99.90
10344;DHT22;5217;43.960;10.954;2022-12-18T03:45:52;13.50;99.90
10344;DHT22;5217;43.960;10.954;2022-12-18T03:48:29;13.50;99.90
10344;DHT22;5217;43.960;10.954;2022-12-18T03:51:01;13.50;99.90
10344;DHT22;5217;43.960;10.954;2022-12-18T03:53:38;13.40;99.90
10344;DHT22;5217;43.960;10.954;2022-12-18T03:56:09;13.50;99.90
10344;DHT22;5217;43.960;10.954;2022-12-18T03:58:40;13.50;99.90
10344;DHT22;5217;43.960;10.954;2022-12-18T04:01:12;13.40;99.90
10344;DHT22;5217;43.960;10.954;2022-12-18T04:03:42;13.50;99.90
10344;DHT22;5217;43.960;10.954;2022-12-18T04:06:12;13.50;99.90
10344;DHT22;5217;43.960;10.954;2022-12-18T04:08:41;13.40;99.90
10344;DHT22;5217;43.960;10.954;2022-12-18T04:11:10;13.50;99.90
10344;DHT22;5217;43.960;10.954;2022-12-18T04:13:39;13.50;99.90
10344;DHT22;5217;43.960;10.954;2022-12-18T04:16:10;13.50;99.90
10344;DHT22;5217;43.960;10.954;2022-12-18T04:18:39;13.50;99.90
10344;DHT22;5217;43.960;10.954;2022-12-18T04:21:07;13.50;99.90
10344;DHT22;5217;43.960;10.954;2022-12-18T04:23:36;13.40;99.90
10344;DHT22;5217;43.960;10.954;2022-12-18T04:26:05;13.50;99.90
10344;DHT22;5217;43.960;10.954;2022-12-18T04:28:33;13.50;99.90
10344;DHT22;5217;43.960;10.954;2022-12-18T04:31:03;13.50;99.90
10344;DHT22;5217;43.960;10.954;2022-12-18T04:33:32;13.40;99.90
10344;DHT22;5217;43.960;10.954;2022-12-18T04:36:00;13.40;99.90
10344;DHT22;5217;43.960;10.954;2022-12-18T04:38:28;13.40;99.90
10344;DHT22;5217;43.960;10.954;2022-12-18T04:40:57;13.40;99.90
10344;DHT22;5217;43.960;10.954;2022-12-18T04:43:25;13.40;99.90
10344;DHT22;5217;43.960;10.954;2022-12-18T04:45:53;13.40;99.90
10344;DHT22;5217;43.960;10.954;2022-12-18T04:48:30;13.30;99.90
10344;DHT22;5217;43.960;10.954;2022-12-18T04:50:59;13.30;99.90
10344;DHT22;5217;43.960;10.954;2022-12-18T04:53:27;13.30;99.90
10344;DHT22;5217;43.960;10.954;2022-12-18T04:56:03;13.30;99.90
10344;DHT22;5217;43.960;10.954;2022-12-18T04:58:32;13.30;99.90
10344;DHT22;5217;43.960;10.954;2022-12-18T05:01:01;13.30;99.90
10344;DHT22;5217;43.960;10.954;2022-12-18T05:03:31;13.30;99.90
10344;DHT22;5217;43.960;10.954;2022-12-18T05:06:00;13.30;99.90
10344;DHT22;5217;43.960;10.954;2022-12-18T05:08:28;13.30;99.90
10344;DHT22;5217;43.960;10.954;2022-12-18T05:11:01;13.30;99.90
10344;DHT22;5217;43.960;10.954;2022-12-18T05:13:30;13.30;99.90
10344;DHT22;5217;43.960;10.954;2022-12-18T05:15:58;13.30;99.90
10344;DHT22;5217;43.960;10.954;2022-12-18T05:18:27;13.30;99.90
10344;DHT22;5217;43.960;10.954;2022-12-18T05:20:57;13.20;99.90
10344;DHT22;5217;43.960;10.954;2022-12-18T05:23:26;13.20;99.90
10344;DHT22;5217;43.960;10.954;2022-12-18T05:25:56;13.20;99.90
10344;DHT22;5217;43.960;10.954;2022-12-18T05:28:26;13.20;99.90
10344;DHT22;5217;43.960;10.954;2022-12-18T05:30:57;13.20;99.90
10344;DHT22;5217;43.960;10.954;2022-12-18T05:33:29;13.20;99.90
10344;DHT22;5217;43.960;10.954;2022-12-18T05:36:00;13.20;99.90
10344;DHT22;5217;43.960;10.954;2022-12-18T05:38:32;13.20;99.90
10344;DHT22;5217;43.960;10.954;2022-12-18T05:41:00;13.10;99.90
10344;DHT22;5217;43.960;10.954;2022-12-18T05:43:29;13.10;99.90
10344;DHT22;5217;43.960;10.954;2022-12-18T05:45:57;13.10;99.90
10344;DHT22;5217;43.960;10.954;2022-12-18T05:48:26;13.10;99.90
10344;DHT22;5217;43.960;10.954;2022-12-18T05:50:54;13.10;99.90
10344;DHT22;5217;43.960;10.954;2022-12-18T05:53:24;13.10;99.90
10344;DHT22;5217;43.960;10.954;2022-12-18T05:55:52;13.10;99.90
10344;DHT22;5217;43.960;10.954;2022-12-18T05:58:21;13.10;99.90
10344;DHT22;5217;43.960;10.954;2022-12-18T06:00:49;13.10;99.90
10344;DHT22;5217;43.960;10.954;2022-12-18T06:03:17;13.10;99.90
10344;DHT22;5217;43.960;10.954;2022-12-18T06:05:46;13.00;99.90
10344;DHT22;5217;43.960;10.954;2022-12-18T06:08:14;13.10;99.90
10344;DHT22;5217;43.960;10.954;2022-12-18T06:10:50;13.00;99.90
10344;DHT22;5217;43.960;10.954;2022-12-18T06:13:19;13.00;99.90
10344;DHT22;5217;43.960;10.954;2022-12-18T06:15:48;13.00;99.90
10344;DHT22;5217;43.960;10.954;2022-12-18T06:18:16;13.00;99.90
10344;DHT22;5217;43.960;10.954;2022-12-18T06:20:44;12.90;99.90
10344;DHT22;5217;43.960;10.954;2022-12-18T06:23:13;12.90;99.90
10344;DHT22;5217;43.960;10.954;2022-12-18T06:25:42;12.90;99.90
10344;DHT22;5217;43.960;10.954;2022-12-18T06:28:12;12.90;99.90
10344;DHT22;5217;43.960;10.954;2022-12-18T06:30:43;12.90;99.90
10344;DHT22;5217;43.960;10.954;2022-12-18T06:33:12;12.90;99.90
10344;DHT22;5217;43.960;10.954;2022-12-18T06:35:40;12.90;99.90
10344;DHT22;5217;43.960;10.954;2022-12-18T06:38:09;12.80;99.90
10344;DHT22;5217;43.960;10.954;2022-12-18T06:40:38;12.80;99.90
10344;DHT22;5217;43.960;10.954;2022-12-18T06:43:07;12.80;99.90
10344;DHT22;5217;43.960;10.954;2022-12-18T06:45:37;12.80;99.90
10344;DHT22;5217;43.960;10.954;2022-12-18T06:48:06;12.80;99.90
10344;DHT22;5217;43.960;10.954;2022-12-18T06:50:34;12.80;99.90
10344;DHT22;5217;43.960;10.954;2022-12-18T06:53:03;12.70;99.90
10344;DHT22;5217;43.960;10.954;2022-12-18T06:55:33;12.80;99.90
10344;DHT22;5217;43.960;10.954;2022-12-18T06:58:01;12.80;99.90
10344;DHT22;5217;43.960;10.954;2022-12-18T07:00:30;12.80;99.90
10344;DHT22;5217;43.960;10.954;2022-12-18T07:03:00;12.80;99.90
10344;DHT22;5217;43.960;10.954;2022-12-18T07:05:28;12.80;99.90
10344;DHT22;5217;43.960;10.954;2022-12-18T07:07:57;12.80;99.90
10344;DHT22;5217;43.960;10.954;2022-12-18T07:10:26;12.70;99.90
10344;DHT22;5217;43.960;10.954;2022-12-18T07:12:54;12.70;99.90
10344;DHT22;5217;43.960;10.954;2022-12-18T07:15:22;12.70;99.90
10344;DHT22;5217;43.960;10.954;2022-12-18T07:17:51;12.70;99.90
10344;DHT22;5217;43.960;10.954;2022-12-18T07:20:20;12.70;99.90
10344;DHT22;5217;43.960;10.954;2022-12-18T07:22:49;12.70;99.90
10344;DHT22;5217;43.960;10.954;2022-12-18T07:25:22;12.70;99.90
10344;DHT22;5217;43.960;10.954;2022-12-18T07:27:50;12.70;99.90
10344;DHT22;5217;43.960;10.954;2022-12-18T07:30:19;12.70;99.90
10344;DHT22;5217;43.960;10.954;2022-12-18T07:32:48;12.70;99.90
10344;DHT22;5217;43.960;10.954;2022-12-18T07:35:17;12.70;99.90
10344;DHT22;5217;43.960;10.954;2022-12-18T07:37:52;12.60;99.90
10344;DHT22;5217;43.960;10.954;2022-12-18T07:40:20;12.70;99.90
10344;DHT22;5217;43.960;10.954;2022-12-18T07:42:49;12.70;99.90
10344;DHT22;5217;43.960;10.954;2022-12-18T07:45:17;12.70;99.90
10344;DHT22;5217;43.960;10.954;2022-12-18T07:47:46;12.70;99.90
10344;DHT22;5217;43.960;10.954;2022-12-18T07:50:14;12.70;99.90
10344;DHT22;5217;43.960;10.954;2022-12-18T07:52:43;12.60;99.90
10344;DHT22;5217;43.960;10.954;2022-12-18T07:55:13;12.60;99.90
10344;DHT22;5217;43.960;10.954;2022-12-18T07:57:41;12.60;99.90
10344;DHT22;5217;43.960;10.954;2022-12-18T08:00:23;12.60;99.90
10344;DHT22;5217;43.960;10.954;2022-12-18T08:02:51;12.60;99.90
10344;DHT22;5217;43.960;10.954;2022-12-18T08:05:20;12.60;99.90
10344;DHT22;5217;43.960;10.954;2022-12-18T08:07:49;12.70;99.90
10344;DHT22;5217;43.960;10.954;2022-12-18T08:10:19;12.60;99.90
10344;DHT22;5217;43.960;10.954;2022-12-18T08:12:49;12.70;99.90
10344;DHT22;5217;43.960;10.954;2022-12-18T08:15:18;12.70;99.90
10344;DHT22;5217;43.960;10.954;2022-12-18T08:17:47;12.60;99.90
10344;DHT22;5217;43.960;10.954;2022-12-18T08:20:15;12.70;99.90
10344;DHT22;5217;43.960;10.954;2022-12-18T08:22:45;12.70;99.90
10344;DHT22;5217;43.960;10.954;2022-12-18T08:25:14;12.70;99.90
10344;DHT22;5217;43.960;10.954;2022-12-18T08:27:43;12.70;99.90
10344;DHT22;5217;43.960;10.954;2022-12-18T08:30:12;12.70;99.90
10344;DHT22;5217;43.960;10.954;2022-12-18T08:32:41;12.80;99.90
10344;DHT22;5217;43.960;10.954;2022-12-18T08:35:09;12.80;99.90
10344;DHT22;5217;43.960;10.954;2022-12-18T08:37:38;12.80;99.90
10344;DHT22;5217;43.960;10.954;2022-12-18T08:40:09;12.90;99.90
10344;DHT22;5217;43.960;10.954;2022-12-18T08:42:37;12.90;99.90
10344;DHT22;5217;43.960;10.954;2022-12-18T08:45:25;12.90;99.90
10344;DHT22;5217;43.960;10.954;2022-12-18T08:47:53;13.00;99.90
10344;DHT22;5217;43.960;10.954;2022-12-18T08:50:22;13.10;99.90
10344;DHT22;5217;43.960;10.954;2022-12-18T08:52:50;13.00;99.90
10344;DHT22;5217;43.960;10.954;2022-12-18T08:55:19;13.20;99.90
10344;DHT22;5217;43.960;10.954;2022-12-18T08:57:48;13.30;99.90
10344;DHT22;5217;43.960;10.954;2022-12-18T09:00:17;13.30;99.90
10344;DHT22;5217;43.960;10.954;2022-12-18T09:02:48;13.40;99.90
10344;DHT22;5217;43.960;10.954;2022-12-18T09:05:16;13.40;99.90
10344;DHT22;5217;43.960;10.954;2022-12-18T09:07:45;13.50;99.90
10344;DHT22;5217;43.960;10.954;2022-12-18T09:10:13;13.50;99.90
10344;DHT22;5217;43.960;10.954;2022-12-18T09:12:42;13.50;99.90
10344;DHT22;5217;43.960;10.954;2022-12-18T09:15:11;13.60;99.90
10344;DHT22;5217;43.960;10.954;2022-12-18T09:17:39;13.60;99.90
10344;DHT22;5217;43.960;10.954;2022-12-18T09:20:10;13.60;99.90
10344;DHT22;5217;43.960;10.954;2022-12-18T09:22:39;13.70;99.90
10344;DHT22;5217;43.960;10.954;2022-12-18T09:25:07;13.80;99.90
10344;DHT22;5217;43.960;10.954;2022-12-18T09:27:35;13.80;99.90
10344;DHT22;5217;43.960;10.954;2022-12-18T09:30:05;13.80;99.90
10344;DHT22;5217;43.960;10.954;2022-12-18T09:32:33;13.80;99.90
10344;DHT22;5217;43.960;10.954;2022-12-18T09:35:02;13.80;99.90
10344;DHT22;5217;43.960;10.954;2022-12-18T09:37:32;13.90;99.90
10344;DHT22;5217;43.960;10.954;2022-12-18T09:40:01;13.90;99.90
10344;DHT22;5217;43.960;10.954;2022-12-18T09:42:29;14.00;99.90
10344;DHT22;5217;43.960;10.954;2022-12-18T09:44:58;14.00;99.90
10344;DHT22;5217;43.960;10.954;2022-12-18T09:47:29;14.10;99.90
10344;DHT22;5217;43.960;10.954;2022-12-18T09:51:05;14.10;99.90
10344;DHT22;5217;43.960;10.954;2022-12-18T09:53:38;14.30;99.90
10344;DHT22;5217;43.960;10.954;2022-12-18T09:56:15;14.30;99.90
10344;DHT22;5217;43.960;10.954;2022-12-18T09:58:47;14.40;99.90
10344;DHT22;5217;43.960;10.954;2022-12-18T10:01:21;14.40;99.90
10344;DHT22;5217;43.960;10.954;2022-12-18T10:03:50;14.50;99.90
10344;DHT22;5217;43.960;10.954;2022-12-18T10:06:23;14.50;99.90
10344;DHT22;5217;43.960;10.954;2022-12-18T10:08:59;14.60;99.90
10344;DHT22;5217;43.960;10.954;2022-12-18T10:11:38;14.60;99.90
10344;DHT22;5217;43.960;10.954;2022-12-18T10:14:14;14.70;99.90
10344;DHT22;5217;43.960;10.954;2022-12-18T10:16:54;14.70;99.90
10344;DHT22;5217;43.960;10.954;2022-12-18T10:19:38;14.80;99.90
10344;DHT22;5217;43.960;10.954;2022-12-18T10:22:19;14.90;99.90
10344;DHT22;5217;43.960;10.954;2022-12-18T10:24:55;14.90;99.90
10344;DHT22;5217;43.960;10.954;2022-12-18T10:27:27;15.00;99.90
10344;DHT22;5217;43.960;10.954;2022-12-18T10:29:57;15.00;99.90
10344;DHT22;5217;43.960;10.954;2022-12-18T10:32:28;15.10;99.90
10344;DHT22;5217;43.960;10.954;2022-12-18T10:34:57;15.20;99.90
10344;DHT22;5217;43.960;10.954;2022-12-18T10:37:29;15.20;99.90
10344;DHT22;5217;43.960;10.954;2022-12-18T10:40:10;15.20;99.90
10344;DHT22;5217;43.960;10.954;2022-12-18T10:43:05;15.30;99.90
10344;DHT22;5217;43.960;10.954;2022-12-18T10:45:34;15.30;99.90
10344;DHT22;5217;43.960;10.954;2022-12-18T10:48:03;15.40;99.90
10344;DHT22;5217;43.960;10.954;2022-12-18T10:50:34;15.40;99.90
10344;DHT22;5217;43.960;10.954;2022-12-18T10:53:24;15.50;99.90
10344;DHT22;5217;43.960;10.954;2022-12-18T10:55:56;15.50;99.90
10344;DHT22;5217;43.960;10.954;2022-12-18T10:58:30;15.50;99.90
10344;DHT22;5217;43.960;10.954;2022-12-18T11:01:05;15.60;99.90
10344;DHT22;5217;43.960;10.954;2022-12-18T11:03:35;15.60;99.90
10344;DHT22;5217;43.960;10.954;2022-12-18T11:06:22;15.70;99.90
10344;DHT22;5217;43.960;10.954;2022-12-18T11:09:19;15.80;99.90
10344;DHT22;5217;43.960;10.954;2022-12-18T11:11:50;15.80;99.90
10344;DHT22;5217;43.960;10.954;2022-12-18T11:14:31;15.90;99.90
10344;DHT22;5217;43.960;10.954;2022-12-18T11:17:41;15.90;99.90
10344;DHT22;5217;43.960;10.954;2022-12-18T11:20:32;16.00;99.90
10344;DHT22;5217;43.960;10.954;2022-12-18T11:23:15;16.00;99.90
10344;DHT22;5217;43.960;10.954;2022-12-18T11:25:51;16.10;99.90
10344;DHT22;5217;43.960;10.954;2022-12-18T11:28:37;16.20;99.90
10344;DHT22;5217;43.960;10.954;2022-12-18T11:31:19;16.20;99.90
10344;DHT22;5217;43.960;10.954;2022-12-18T11:36:55;16.30;99.90
10344;DHT22;5217;43.960;10.954;2022-12-18T11:39:31;16.30;99.90
10344;DHT22;5217;43.960;10.954;2022-12-18T11:42:05;16.30;99.90
10344;DHT22;5217;43.960;10.954;2022-12-18T11:44:45;16.40;99.90
10344;DHT22;5217;43.960;10.954;2022-12-18T11:47:28;16.40;99.90
10344;DHT22;5217;43.960;10.954;2022-12-18T11:50:01;16.40;99.90
10344;DHT22;5217;43.960;10.954;2022-12-18T11:52:33;16.50;99.90
10344;DHT22;5217;43.960;10.954;2022-12-18T11:55:11;16.50;99.90
10344;DHT22;5217;43.960;10.954;2022-12-18T11:57:46;16.60;99.90
10344;DHT22;5217;43.960;10.954;2022-12-18T12:00:18;16.60;99.90
10344;DHT22;5217;43.960;10.954;2022-12-18T12:03:00;16.60;99.90
10344;DHT22;5217;43.960;10.954;2022-12-18T12:05:49;16.70;99.90
10344;DHT22;5217;43.960;10.954;2022-12-18T12:08:29;16.70;99.90
10344;DHT22;5217;43.960;10.954;2022-12-18T12:14:47;16.70;99.60
10344;DHT22;5217;43.960;10.954;2022-12-18T12:20:35;16.80;99.10
10344;DHT22;5217;43.960;10.954;2022-12-18T12:23:12;16.80;99.00
10344;DHT22;5217;43.960;10.954;2022-12-18T12:25:48;16.80;98.70
10344;DHT22;5217;43.960;10.954;2022-12-18T12:28:28;16.90;98.30
10344;DHT22;5217;43.960;10.954;2022-12-18T12:31:07;16.90;98.20
10344;DHT22;5217;43.960;10.954;2022-12-18T12:33:43;17.00;98.20
10344;DHT22;5217;43.960;10.954;2022-12-18T12:36:21;17.00;98.10
10344;DHT22;5217;43.960;10.954;2022-12-18T12:38:56;17.10;98.00
10344;DHT22;5217;43.960;10.954;2022-12-18T12:41:27;17.20;98.10
10344;DHT22;5217;43.960;10.954;2022-12-18T12:44:29;17.20;97.90
10344;DHT22;5217;43.960;10.954;2022-12-18T12:47:03;17.20;97.60
10344;DHT22;5217;43.960;10.954;2022-12-18T12:49:35;17.20;96.70
10344;DHT22;5217;43.960;10.954;2022-12-18T12:52:12;17.20;96.80
10344;DHT22;5217;43.960;10.954;2022-12-18T12:54:42;17.30;97.00
10344;DHT22;5217;43.960;10.954;2022-12-18T12:57:17;17.30;97.20
10344;DHT22;5217;43.960;10.954;2022-12-18T12:59:56;17.30;96.60
10344;DHT22;5217;43.960;10.954;2022-12-18T13:02:31;17.40;96.80
10344;DHT22;5217;43.960;10.954;2022-12-18T13:05:06;17.40;96.80
10344;DHT22;5217;43.960;10.954;2022-12-18T13:07:47;17.50;96.80
10344;DHT22;5217;43.960;10.954;2022-12-18T13:10:26;17.50;96.80
10344;DHT22;5217;43.960;10.954;2022-12-18T13:13:00;17.50;96.50
10344;DHT22;5217;43.960;10.954;2022-12-18T13:15:40;17.50;96.20
10344;DHT22;5217;43.960;10.954;2022-12-18T13:18:19;17.60;95.60
10344;DHT22;5217;43.960;10.954;2022-12-18T13:20:50;17.60;95.10
10344;DHT22;5217;43.960;10.954;2022-12-18T13:23:34;17.60;94.80
10344;DHT22;5217;43.960;10.954;2022-12-18T13:26:33;17.60;94.80
10344;DHT22;5217;43.960;10.954;2022-12-18T13:29:03;17.60;95.00
10344;DHT22;5217;43.960;10.954;2022-12-18T13:34:29;17.60;95.00
10344;DHT22;5217;43.960;10.954;2022-12-18T13:37:40;17.70;94.80
10344;DHT22;5217;43.960;10.954;2022-12-18T13:43:40;17.70;94.30
10344;DHT22;5217;43.960;10.954;2022-12-18T13:46:26;17.60;94.10
10344;DHT22;5217;43.960;10.954;2022-12-18T13:49:02;17.60;94.20
10344;DHT22;5217;43.960;10.954;2022-12-18T13:51:33;17.60;94.10
10344;DHT22;5217;43.960;10.954;2022-12-18T13:54:12;17.60;94.10
10344;DHT22;5217;43.960;10.954;2022-12-18T13:56:44;17.60;94.20
10344;DHT22;5217;43.960;10.954;2022-12-18T13:59:17;17.60;94.20
10344;DHT22;5217;43.960;10.954;2022-12-18T14:01:53;17.60;94.50
10344;DHT22;5217;43.960;10.954;2022-12-18T14:04:25;17.60;94.50
10344;DHT22;5217;43.960;10.954;2022-12-18T14:06:57;17.60;94.30
10344;DHT22;5217;43.960;10.954;2022-12-18T14:09:29;17.60;94.40
10344;DHT22;5217;43.960;10.954;2022-12-18T14:11:59;17.60;94.60
10344;DHT22;5217;43.960;10.954;2022-12-18T14:14:49;17.60;94.80
10344;DHT22;5217;43.960;10.954;2022-12-18T14:17:21;17.70;94.80
10344;DHT22;5217;43.960;10.954;2022-12-18T14:19:51;17.60;94.60
10344;DHT22;5217;43.960;10.954;2022-12-18T14:22:21;17.70;94.60
10344;DHT22;5217;43.960;10.954;2022-12-18T14:25:13;17.70;94.70
10344;DHT22;5217;43.960;10.954;2022-12-18T14:27:43;17.60;94.80
10344;DHT22;5217;43.960;10.954;2022-12-18T14:30:27;17.60;94.80
10344;DHT22;5217;43.960;10.954;2022-12-18T14:33:04;17.60;95.00
10344;DHT22;5217;43.960;10.954;2022-12-18T14:35:33;17.60;95.40
10344;DHT22;5217;43.960;10.954;2022-12-18T14:38:20;17.60;95.60
10344;DHT22;5217;43.960;10.954;2022-12-18T14:40:52;17.60;95.60
10344;DHT22;5217;43.960;10.954;2022-12-18T14:43:21;17.60;96.00
10344;DHT22;5217;43.960;10.954;2022-12-18T14:45:51;17.50;96.80
10344;DHT22;5217;43.960;10.954;2022-12-18T14:48:22;17.50;97.40
10344;DHT22;5217;43.960;10.954;2022-12-18T14:50:57;17.50;97.70
10344;DHT22;5217;43.960;10.954;2022-12-18T14:53:37;17.40;97.70
10344;DHT22;5217;43.960;10.954;2022-12-18T14:56:17;17.40;97.50
10344;DHT22;5217;43.960;10.954;2022-12-18T14:58:48;17.40;97.30
10344;DHT22;5217;43.960;10.954;2022-12-18T15:01:23;17.40;97.30
10344;DHT22;5217;43.960;10.954;2022-12-18T15:03:52;17.30;97.10
10344;DHT22;5217;43.960;10.954;2022-12-18T15:06:30;17.30;96.90
10344;DHT22;5217;43.960;10.954;2022-12-18T15:09:02;17.30;96.40
10344;DHT22;5217;43.960;10.954;2022-12-18T15:11:43;17.20;96.20
10344;DHT22;5217;43.960;10.954;2022-12-18T15:14:31;17.20;95.70
10344;DHT22;5217;43.960;10.954;2022-12-18T15:17:05;17.20;95.40
10344;DHT22;5217;43.960;10.954;2022-12-18T15:19:39;17.20;95.00
10344;DHT22;5217;43.960;10.954;2022-12-18T15:22:20;17.20;94.80
10344;DHT22;5217;43.960;10.954;2022-12-18T15:24:49;17.20;94.60
10344;DHT22;5217;43.960;10.954;2022-12-18T15:27:30;17.10;94.30
10344;DHT22;5217;43.960;10.954;2022-12-18T15:30:17;17.10;94.10
10344;DHT22;5217;43.960;10.954;2022-12-18T15:32:48;17.10;94.00
10344;DHT22;5217;43.960;10.954;2022-12-18T15:35:19;17.00;93.90
10344;DHT22;5217;43.960;10.954;2022-12-18T15:37:48;17.00;93.80
10344;DHT22;5217;43.960;10.954;2022-12-18T15:40:18;17.00;93.70
10344;DHT22;5217;43.960;10.954;2022-12-18T15:42:47;16.90;93.60
10344;DHT22;5217;43.960;10.954;2022-12-18T15:45:34;16.90;93.50
10344;DHT22;5217;43.960;10.954;2022-12-18T15:48:09;16.90;93.50
10344;DHT22;5217;43.960;10.954;2022-12-18T15:50:42;16.80;93.50
10344;DHT22;5217;43.960;10.954;2022-12-18T15:53:11;16.80;93.60
10344;DHT22;5217;43.960;10.954;2022-12-18T15:55:39;16.80;93.80
10344;DHT22;5217;43.960;10.954;2022-12-18T15:58:27;16.70;93.90
10344;DHT22;5217;43.960;10.954;2022-12-18T16:00:56;16.70;94.10
10344;DHT22;5217;43.960;10.954;2022-12-18T16:03:26;16.70;94.30
10344;DHT22;5217;43.960;10.954;2022-12-18T16:05:55;16.60;94.30
10344;DHT22;5217;43.960;10.954;2022-12-18T16:08:25;16.50;94.50
10344;DHT22;5217;43.960;10.954;2022-12-18T16:10:54;16.50;94.60
10344;DHT22;5217;43.960;10.954;2022-12-18T16:13:23;16.50;94.80
10344;DHT22;5217;43.960;10.954;2022-12-18T16:15:51;16.50;94.80
10344;DHT22;5217;43.960;10.954;2022-12-18T16:18:19;16.40;94.90
10344;DHT22;5217;43.960;10.954;2022-12-18T16:20:49;16.40;95.00